createdAt,value
2022-11-10T21:54:09.295Z,101703.50
2022-11-10T21:56:35.774Z,101705.94
2022-11-10T21:59:02.442Z,101710.09
2022-11-10T22:01:29.014Z,101698.69
2022-11-10T22:03:55.566Z,101704.28
2022-11-10T22:06:22.511Z,101721.31
2022-11-10T22:08:50.603Z,101698.06
2022-11-10T22:11:39.748Z,101715.50
2022-11-10T22:14:31.679Z,101712.38
2022-11-10T22:17:18.326Z,101722.97
2022-11-10T22:19:45.096Z,101727.13
2022-11-10T22:22:14.313Z,101732.53
2022-11-10T22:24:40.876Z,101731.47
2022-11-10T22:27:08.222Z,101743.94
2022-11-10T22:29:34.782Z,101742.47
2022-11-10T22:32:02.212Z,101750.34
2022-11-10T22:34:29.160Z,101755.13
2022-11-10T22:36:55.878Z,101744.34
2022-11-10T22:39:22.643Z,101748.94
2022-11-10T22:42:07.851Z,101739.34
2022-11-10T22:44:34.297Z,101736.25
2022-11-10T22:47:02.194Z,101735.59
2022-11-10T22:49:28.698Z,101735.38
2022-11-10T22:51:55.492Z,101734.56
2022-11-10T22:54:23.161Z,101742.94
2022-11-10T22:56:50.977Z,101747.84
2022-11-10T22:59:18.133Z,101748.63
2022-11-10T23:01:44.939Z,101762.53
2022-11-10T23:04:11.787Z,101760.25
2022-11-10T23:06:38.486Z,101762.31
2022-11-10T23:09:05.124Z,101769.03
2022-11-10T23:11:32.469Z,101760.25
2022-11-10T23:13:59.002Z,101762.72
2022-11-10T23:16:27.742Z,101762.72
2022-11-10T23:18:56.085Z,101755.41
2022-11-10T23:21:26.200Z,101759.78
2022-11-10T23:23:53.660Z,101767.63
2022-11-10T23:26:25.841Z,101763.50
2022-11-10T23:28:53.185Z,101757.25
2022-11-10T23:31:22.905Z,101770.31
2022-11-10T23:33:52.712Z,101778.00
2022-11-10T23:36:20.223Z,101778.38
2022-11-10T23:38:48.725Z,101793.75
2022-11-10T23:41:17.620Z,101782.09
2022-11-10T23:43:44.438Z,101790.59
2022-11-10T23:46:12.193Z,101783.34
2022-11-10T23:48:39.793Z,101779.19
2022-11-10T23:51:09.510Z,101771.28
2022-11-10T23:53:35.965Z,101769.66
2022-11-10T23:56:05.710Z,101781.06
2022-11-10T23:58:32.757Z,101777.09
